DAL1941 KMHT-KMCN
Flight info
| Callsign | DAL1941 |
|---|---|
| Flight time | 2h 34m |
| Altitude | 34000 |
| Route | PPORT4 CCC SWL TYI CAE MCN |
| Aircraft | B739/M-SDE2E3FGHIRWXY/LB1 |
Departure
| Time | 2026-05-07 15:44 |
|---|---|
| Airport | Manchester-Boston Regional Airport (KMHT) |
Arrival
| Time | 2026-05-07 18:18 |
|---|---|
| Airport | Middle Georgia Regional Airport (KMCN) |
| Time | Latitude | Longitude | Altitude | Speed | Heading |
|---|---|---|---|---|---|
| 2026-05-07 15:33 | 42.92670 | -71.43877 | 231 ft | 0 kts | 336° |
| 2026-05-07 15:37 | 42.92660 | -71.43870 | 231 ft | 4 kts | 336° |
| 2026-05-07 15:38 | 42.92638 | -71.43856 | 231 ft | 4 kts | 341° |
| 2026-05-07 15:38 | 42.92616 | -71.43855 | 231 ft | 4 kts | 41° |
| 2026-05-07 15:38 | 42.92602 | -71.43882 | 231 ft | 2 kts | 66° |
| 2026-05-07 15:38 | 42.92599 | -71.43889 | 231 ft | 0 kts | 66° |
| 2026-05-07 15:40 | 42.92611 | -71.43854 | 231 ft | 14 kts | 67° |
| 2026-05-07 15:40 | 42.92679 | -71.43638 | 231 ft | 31 kts | 66° |
| 2026-05-07 15:41 | 42.92783 | -71.43547 | 231 ft | 20 kts | 336° |
| 2026-05-07 15:41 | 42.92907 | -71.43530 | 235 ft | 23 kts | 63° |
| 2026-05-07 15:41 | 42.92984 | -71.43308 | 236 ft | 27 kts | 47° |
| 2026-05-07 15:41 | 42.93163 | -71.43357 | 232 ft | 34 kts | 336° |
| 2026-05-07 15:42 | 42.93391 | -71.43490 | 232 ft | 26 kts | 338° |
| 2026-05-07 15:42 | 42.93518 | -71.43439 | 234 ft | 20 kts | 24° |
| 2026-05-07 15:42 | 42.93660 | -71.43484 | 228 ft | 26 kts | 347° |
| 2026-05-07 15:42 | 42.93874 | -71.43438 | 228 ft | 35 kts | 36° |
| 2026-05-07 15:43 | 42.94055 | -71.43211 | 237 ft | 37 kts | 42° |
| 2026-05-07 15:43 | 42.94241 | -71.42982 | 244 ft | 28 kts | 43° |
| 2026-05-07 15:43 | 42.94338 | -71.43020 | 244 ft | 23 kts | 245° |
| 2026-05-07 15:43 | 42.94200 | -71.43205 | 242 ft | 49 kts | 222° |
| 2026-05-07 15:44 | 42.93757 | -71.43755 | 225 ft | 120 kts | 222° |
| 2026-05-07 15:44 | 42.92999 | -71.44706 | 253 ft | 171 kts | 219° |
| 2026-05-07 15:44 | 42.92033 | -71.45855 | 629 ft | 197 kts | 223° |
| 2026-05-07 15:44 | 42.90800 | -71.46847 | 1298 ft | 218 kts | 204° |
| 2026-05-07 15:45 | 42.89302 | -71.47423 | 2053 ft | 227 kts | 200° |
| 2026-05-07 15:45 | 42.87743 | -71.48015 | 2626 ft | 240 kts | 199° |
| 2026-05-07 15:45 | 42.86059 | -71.48648 | 2939 ft | 261 kts | 200° |
| 2026-05-07 15:45 | 42.84310 | -71.49328 | 3754 ft | 258 kts | 200° |
| 2026-05-07 15:46 | 42.80851 | -71.50713 | 5201 ft | 268 kts | 200° |
| 2026-05-07 15:46 | 42.79041 | -71.51441 | 5858 ft | 272 kts | 201° |
| 2026-05-07 15:46 | 42.77255 | -71.52182 | 6820 ft | 263 kts | 202° |
| 2026-05-07 15:47 | 42.75496 | -71.52912 | 7472 ft | 269 kts | 203° |
| 2026-05-07 15:47 | 42.73660 | -71.53701 | 7912 ft | 281 kts | 204° |
| 2026-05-07 15:47 | 42.71848 | -71.54480 | 9077 ft | 262 kts | 205° |
| 2026-05-07 15:47 | 42.70187 | -71.55206 | 10249 ft | 245 kts | 206° |
| 2026-05-07 15:48 | 42.68524 | -71.55911 | 10672 ft | 257 kts | 205° |
| 2026-05-07 15:48 | 42.66739 | -71.56554 | 10949 ft | 273 kts | 203° |
| 2026-05-07 15:48 | 42.64855 | -71.57235 | 11237 ft | 287 kts | 203° |
| 2026-05-07 15:48 | 42.62905 | -71.57954 | 11526 ft | 301 kts | 203° |
| 2026-05-07 15:49 | 42.60808 | -71.58742 | 11805 ft | 316 kts | 203° |
| 2026-05-07 15:49 | 42.58653 | -71.59570 | 12085 ft | 330 kts | 203° |
| 2026-05-07 15:49 | 42.56433 | -71.60437 | 12350 ft | 342 kts | 203° |
| 2026-05-07 15:49 | 42.54110 | -71.61358 | 12623 ft | 353 kts | 203° |
| 2026-05-07 15:50 | 42.51722 | -71.62313 | 12879 ft | 362 kts | 203° |
| 2026-05-07 15:50 | 42.49280 | -71.63289 | 13315 ft | 367 kts | 203° |
| 2026-05-07 15:50 | 42.46834 | -71.64258 | 13972 ft | 365 kts | 203° |
| 2026-05-07 15:50 | 42.44399 | -71.65222 | 14465 ft | 367 kts | 203° |
| 2026-05-07 15:51 | 42.41935 | -71.66199 | 14904 ft | 371 kts | 203° |
| 2026-05-07 15:51 | 42.39445 | -71.67179 | 15381 ft | 373 kts | 203° |
| 2026-05-07 15:51 | 42.36946 | -71.68167 | 15852 ft | 375 kts | 203° |
| 2026-05-07 15:51 | 42.34432 | -71.69163 | 16249 ft | 378 kts | 204° |
| 2026-05-07 15:52 | 42.31902 | -71.70165 | 16717 ft | 379 kts | 203° |
| 2026-05-07 15:52 | 42.29363 | -71.71168 | 17157 ft | 381 kts | 203° |
| 2026-05-07 15:52 | 42.26808 | -71.72176 | 17572 ft | 384 kts | 203° |
| 2026-05-07 15:52 | 42.24236 | -71.73190 | 17994 ft | 386 kts | 203° |
| 2026-05-07 15:53 | 42.21646 | -71.74211 | 18374 ft | 389 kts | 203° |
| 2026-05-07 15:53 | 42.19049 | -71.75234 | 18790 ft | 389 kts | 204° |
| 2026-05-07 15:53 | 42.16452 | -71.76253 | 19238 ft | 388 kts | 204° |
| 2026-05-07 15:53 | 42.13871 | -71.77263 | 19729 ft | 385 kts | 205° |
| 2026-05-07 15:54 | 42.11299 | -71.78270 | 20205 ft | 385 kts | 205° |
| 2026-05-07 15:54 | 42.08726 | -71.79278 | 20596 ft | 386 kts | 206° |
| 2026-05-07 15:54 | 42.06154 | -71.80286 | 21058 ft | 384 kts | 206° |
| 2026-05-07 15:54 | 42.03635 | -71.81265 | 22080 ft | 366 kts | 207° |
| 2026-05-07 15:55 | 42.01246 | -71.82183 | 23326 ft | 348 kts | 208° |
| 2026-05-07 15:55 | 41.98956 | -71.83062 | 24130 ft | 339 kts | 209° |
| 2026-05-07 15:55 | 41.96701 | -71.83944 | 24584 ft | 334 kts | 210° |
| 2026-05-07 15:55 | 41.94522 | -71.84792 | 25457 ft | 321 kts | 210° |
| 2026-05-07 15:56 | 41.92406 | -71.85617 | 26181 ft | 312 kts | 211° |
| 2026-05-07 15:56 | 41.90334 | -71.86431 | 26740 ft | 309 kts | 211° |
| 2026-05-07 15:56 | 41.88279 | -71.87239 | 27219 ft | 307 kts | 211° |
| 2026-05-07 15:56 | 41.86229 | -71.88044 | 27645 ft | 307 kts | 211° |
| 2026-05-07 15:57 | 41.84190 | -71.88843 | 28136 ft | 304 kts | 212° |
| 2026-05-07 15:57 | 41.82174 | -71.89633 | 28672 ft | 300 kts | 212° |
| 2026-05-07 15:57 | 41.80172 | -71.90411 | 29185 ft | 297 kts | 212° |
| 2026-05-07 15:57 | 41.78189 | -71.91183 | 29595 ft | 296 kts | 212° |
| 2026-05-07 15:58 | 41.76217 | -71.91951 | 30003 ft | 295 kts | 212° |
| 2026-05-07 15:58 | 41.74245 | -71.92713 | 30331 ft | 294 kts | 212° |
| 2026-05-07 15:58 | 41.72308 | -71.93464 | 30643 ft | 293 kts | 213° |
| 2026-05-07 15:58 | 41.70352 | -71.94224 | 30936 ft | 293 kts | 213° |
| 2026-05-07 15:59 | 41.68399 | -71.94983 | 31232 ft | 292 kts | 213° |
| 2026-05-07 15:59 | 41.66454 | -71.95735 | 31538 ft | 291 kts | 213° |
| 2026-05-07 15:59 | 41.64511 | -71.96487 | 31790 ft | 291 kts | 213° |
| 2026-05-07 15:59 | 41.62545 | -71.97252 | 31823 ft | 298 kts | 213° |
| 2026-05-07 16:00 | 41.60535 | -71.98032 | 31888 ft | 303 kts | 213° |
| 2026-05-07 16:00 | 41.58517 | -71.98892 | 31879 ft | 300 kts | 218° |
| 2026-05-07 16:00 | 41.56668 | -72.00126 | 31935 ft | 297 kts | 222° |
| 2026-05-07 16:00 | 41.54884 | -72.01525 | 32052 ft | 298 kts | 224° |
| 2026-05-07 16:01 | 41.53206 | -72.03105 | 32300 ft | 291 kts | 230° |
| 2026-05-07 16:01 | 41.51722 | -72.04902 | 32561 ft | 287 kts | 232° |
| 2026-05-07 16:01 | 41.50288 | -72.06741 | 32883 ft | 284 kts | 232° |
| 2026-05-07 16:01 | 41.48878 | -72.08570 | 33190 ft | 282 kts | 232° |
| 2026-05-07 16:02 | 41.47472 | -72.10400 | 33400 ft | 282 kts | 233° |
| 2026-05-07 16:02 | 41.46067 | -72.12225 | 33630 ft | 282 kts | 233° |
| 2026-05-07 16:02 | 41.44666 | -72.14036 | 33886 ft | 280 kts | 233° |
| 2026-05-07 16:02 | 41.43256 | -72.15862 | 33856 ft | 282 kts | 233° |
| 2026-05-07 16:03 | 41.41846 | -72.17679 | 33849 ft | 282 kts | 233° |
| 2026-05-07 16:03 | 41.40439 | -72.19489 | 33868 ft | 281 kts | 233° |
| 2026-05-07 16:03 | 41.39038 | -72.21289 | 33886 ft | 279 kts | 233° |
| 2026-05-07 16:03 | 41.37645 | -72.23079 | 33888 ft | 279 kts | 233° |
| 2026-05-07 16:04 | 41.36244 | -72.24878 | 33879 ft | 282 kts | 232° |
| 2026-05-07 16:04 | 41.34824 | -72.26701 | 33908 ft | 285 kts | 232° |
| 2026-05-07 16:04 | 41.33388 | -72.28547 | 33907 ft | 289 kts | 232° |
| 2026-05-07 16:04 | 41.31932 | -72.30416 | 33893 ft | 292 kts | 232° |
| 2026-05-07 16:05 | 41.30462 | -72.32296 | 33899 ft | 295 kts | 232° |
| 2026-05-07 16:05 | 41.28977 | -72.34195 | 33889 ft | 298 kts | 232° |
| 2026-05-07 16:05 | 41.27480 | -72.36111 | 33897 ft | 300 kts | 232° |
| 2026-05-07 16:06 | 41.24442 | -72.39993 | 33812 ft | 305 kts | 232° |
| 2026-05-07 16:06 | 41.21381 | -72.43894 | 33873 ft | 309 kts | 232° |
| 2026-05-07 16:07 | 41.18257 | -72.47874 | 33886 ft | 314 kts | 232° |
| 2026-05-07 16:07 | 41.15085 | -72.51908 | 33891 ft | 318 kts | 232° |
| 2026-05-07 16:08 | 41.11867 | -72.55998 | 33896 ft | 323 kts | 232° |
| 2026-05-07 16:08 | 41.08604 | -72.60132 | 33904 ft | 326 kts | 231° |
| 2026-05-07 16:09 | 41.05316 | -72.64292 | 33904 ft | 327 kts | 231° |
| 2026-05-07 16:09 | 41.02024 | -72.68453 | 33904 ft | 328 kts | 231° |
| 2026-05-07 16:10 | 40.98730 | -72.72615 | 33904 ft | 327 kts | 231° |
| 2026-05-07 16:10 | 40.95440 | -72.76762 | 33914 ft | 326 kts | 231° |
| 2026-05-07 16:11 | 40.92072 | -72.80788 | 33915 ft | 331 kts | 226° |
| 2026-05-07 16:11 | 40.88364 | -72.84406 | 33865 ft | 330 kts | 226° |
| 2026-05-07 16:12 | 40.84664 | -72.87992 | 33911 ft | 330 kts | 226° |
| 2026-05-07 16:12 | 40.80967 | -72.91583 | 33916 ft | 330 kts | 226° |
| 2026-05-07 16:13 | 40.77268 | -72.95176 | 33962 ft | 331 kts | 226° |
| 2026-05-07 16:13 | 40.74182 | -72.98174 | 33922 ft | 332 kts | 226° |
| 2026-05-07 16:14 | 40.70463 | -73.01780 | 33862 ft | 331 kts | 226° |
| 2026-05-07 16:14 | 40.66758 | -73.05367 | 33902 ft | 331 kts | 226° |
| 2026-05-07 16:15 | 40.63052 | -73.08953 | 33914 ft | 331 kts | 226° |
| 2026-05-07 16:15 | 40.59340 | -73.12537 | 33918 ft | 331 kts | 226° |
| 2026-05-07 16:16 | 40.55622 | -73.16123 | 33919 ft | 332 kts | 226° |
| 2026-05-07 16:16 | 40.51888 | -73.19702 | 33885 ft | 331 kts | 226° |
| 2026-05-07 16:17 | 40.48183 | -73.23289 | 33926 ft | 331 kts | 226° |
| 2026-05-07 16:17 | 40.44475 | -73.26891 | 33933 ft | 333 kts | 226° |
| 2026-05-07 16:18 | 40.40731 | -73.30433 | 33975 ft | 334 kts | 226° |
| 2026-05-07 16:18 | 40.36942 | -73.34060 | 33938 ft | 335 kts | 226° |
| 2026-05-07 16:19 | 40.33211 | -73.37629 | 33880 ft | 334 kts | 225° |
| 2026-05-07 16:19 | 40.29460 | -73.41212 | 33921 ft | 334 kts | 225° |
| 2026-05-07 16:20 | 40.25707 | -73.44796 | 33926 ft | 334 kts | 225° |
| 2026-05-07 16:20 | 40.21946 | -73.48379 | 33925 ft | 335 kts | 225° |
| 2026-05-07 16:21 | 40.18182 | -73.51957 | 33935 ft | 335 kts | 225° |
| 2026-05-07 16:21 | 40.14408 | -73.55543 | 33864 ft | 335 kts | 225° |
| 2026-05-07 16:22 | 40.10625 | -73.59131 | 33918 ft | 338 kts | 225° |
| 2026-05-07 16:22 | 40.06792 | -73.62765 | 33929 ft | 343 kts | 225° |
| 2026-05-07 16:23 | 40.02914 | -73.66434 | 33993 ft | 345 kts | 225° |
| 2026-05-07 16:23 | 39.99063 | -73.70013 | 33926 ft | 335 kts | 225° |
| 2026-05-07 16:24 | 39.95319 | -73.73561 | 33887 ft | 333 kts | 225° |
| 2026-05-07 16:24 | 39.91541 | -73.77149 | 33932 ft | 339 kts | 225° |
| 2026-05-07 16:25 | 39.87697 | -73.80773 | 33932 ft | 343 kts | 225° |
| 2026-05-07 16:25 | 39.83802 | -73.84432 | 33935 ft | 346 kts | 225° |
| 2026-05-07 16:26 | 39.79887 | -73.88101 | 33931 ft | 347 kts | 225° |
| 2026-05-07 16:26 | 39.75959 | -73.91777 | 33891 ft | 348 kts | 224° |
| 2026-05-07 16:27 | 39.72014 | -73.95467 | 33931 ft | 351 kts | 224° |
| 2026-05-07 16:27 | 39.68028 | -73.99197 | 33927 ft | 356 kts | 224° |
| 2026-05-07 16:28 | 39.64012 | -74.02937 | 33927 ft | 352 kts | 224° |
| 2026-05-07 16:28 | 39.60087 | -74.06576 | 33939 ft | 342 kts | 225° |
| 2026-05-07 16:29 | 39.56237 | -74.10172 | 33958 ft | 340 kts | 224° |
| 2026-05-07 16:29 | 39.52396 | -74.13731 | 33948 ft | 339 kts | 224° |
| 2026-05-07 16:30 | 39.48551 | -74.17292 | 33956 ft | 340 kts | 224° |
| 2026-05-07 16:30 | 39.44714 | -74.20846 | 33961 ft | 343 kts | 224° |
| 2026-05-07 16:31 | 39.40811 | -74.24454 | 33945 ft | 346 kts | 224° |
| 2026-05-07 16:31 | 39.36882 | -74.28089 | 33940 ft | 349 kts | 224° |
| 2026-05-07 16:32 | 39.32904 | -74.31757 | 33945 ft | 354 kts | 224° |
| 2026-05-07 16:32 | 39.28875 | -74.35466 | 33946 ft | 358 kts | 224° |
| 2026-05-07 16:33 | 39.24836 | -74.39171 | 33948 ft | 352 kts | 224° |
| 2026-05-07 16:33 | 39.20890 | -74.42782 | 33943 ft | 345 kts | 224° |
| 2026-05-07 16:34 | 39.16969 | -74.46383 | 33934 ft | 347 kts | 225° |
| 2026-05-07 16:34 | 39.12996 | -74.50033 | 33941 ft | 354 kts | 224° |
| 2026-05-07 16:35 | 39.08957 | -74.53729 | 33947 ft | 358 kts | 224° |
| 2026-05-07 16:35 | 39.04871 | -74.57454 | 33952 ft | 361 kts | 224° |
| 2026-05-07 16:36 | 39.00756 | -74.61201 | 33946 ft | 364 kts | 224° |
| 2026-05-07 16:36 | 38.96616 | -74.64969 | 33940 ft | 365 kts | 224° |
| 2026-05-07 16:37 | 38.92467 | -74.68734 | 33961 ft | 365 kts | 224° |
| 2026-05-07 16:37 | 38.88319 | -74.72494 | 33952 ft | 366 kts | 224° |
| 2026-05-07 16:38 | 38.84175 | -74.76246 | 33953 ft | 364 kts | 224° |
| 2026-05-07 16:38 | 38.80037 | -74.79994 | 33881 ft | 364 kts | 224° |
| 2026-05-07 16:39 | 38.75903 | -74.83735 | 33955 ft | 364 kts | 224° |
| 2026-05-07 16:39 | 38.71763 | -74.87473 | 33946 ft | 364 kts | 224° |
| 2026-05-07 16:40 | 38.67633 | -74.91195 | 33964 ft | 367 kts | 224° |
| 2026-05-07 16:40 | 38.63455 | -74.94948 | 33948 ft | 367 kts | 224° |
| 2026-05-07 16:41 | 38.59277 | -74.98693 | 33919 ft | 367 kts | 224° |
| 2026-05-07 16:41 | 38.55110 | -75.02433 | 33959 ft | 367 kts | 224° |
| 2026-05-07 16:42 | 38.50923 | -75.06185 | 33981 ft | 368 kts | 224° |
| 2026-05-07 16:42 | 38.46718 | -75.09943 | 33985 ft | 368 kts | 224° |
| 2026-05-07 16:43 | 38.42542 | -75.13668 | 33969 ft | 365 kts | 224° |
| 2026-05-07 16:43 | 38.38395 | -75.17369 | 33932 ft | 362 kts | 224° |
| 2026-05-07 16:44 | 38.34275 | -75.21040 | 33972 ft | 362 kts | 224° |
| 2026-05-07 16:44 | 38.30141 | -75.24718 | 33983 ft | 363 kts | 224° |
| 2026-05-07 16:45 | 38.25971 | -75.28426 | 33977 ft | 367 kts | 224° |
| 2026-05-07 16:45 | 38.21770 | -75.32152 | 33976 ft | 369 kts | 224° |
| 2026-05-07 16:46 | 38.17555 | -75.35882 | 33948 ft | 370 kts | 224° |
| 2026-05-07 16:46 | 38.13323 | -75.39625 | 33955 ft | 371 kts | 224° |
| 2026-05-07 16:47 | 38.09077 | -75.43376 | 33979 ft | 372 kts | 224° |
| 2026-05-07 16:47 | 38.04886 | -75.47200 | 33955 ft | 366 kts | 229° |
| 2026-05-07 16:48 | 38.01116 | -75.51420 | 33959 ft | 363 kts | 229° |
| 2026-05-07 16:48 | 37.97336 | -75.55661 | 33929 ft | 362 kts | 230° |
| 2026-05-07 16:49 | 37.93563 | -75.59874 | 33961 ft | 362 kts | 229° |
| 2026-05-07 16:49 | 37.89775 | -75.64090 | 33962 ft | 364 kts | 229° |
| 2026-05-07 16:50 | 37.85952 | -75.68343 | 33959 ft | 367 kts | 229° |
| 2026-05-07 16:50 | 37.82104 | -75.72612 | 33950 ft | 368 kts | 229° |
| 2026-05-07 16:51 | 37.78250 | -75.76879 | 33922 ft | 368 kts | 230° |
| 2026-05-07 16:51 | 37.74400 | -75.81136 | 33947 ft | 368 kts | 229° |
| 2026-05-07 16:52 | 37.70553 | -75.85386 | 33950 ft | 367 kts | 229° |
| 2026-05-07 16:52 | 37.66710 | -75.89628 | 33950 ft | 367 kts | 229° |
| 2026-05-07 16:53 | 37.62870 | -75.93853 | 33946 ft | 366 kts | 229° |
| 2026-05-07 16:53 | 37.59040 | -75.98066 | 33938 ft | 365 kts | 229° |
| 2026-05-07 16:54 | 37.55212 | -76.02272 | 33933 ft | 365 kts | 229° |
| 2026-05-07 16:54 | 37.51390 | -76.06464 | 33924 ft | 364 kts | 229° |
| 2026-05-07 16:55 | 37.47572 | -76.10646 | 33929 ft | 364 kts | 229° |
| 2026-05-07 16:55 | 37.43755 | -76.14819 | 33940 ft | 363 kts | 229° |
| 2026-05-07 16:56 | 37.39937 | -76.18992 | 33933 ft | 364 kts | 229° |
| 2026-05-07 16:56 | 37.34203 | -76.25243 | 33921 ft | 364 kts | 229° |
| 2026-05-07 16:57 | 37.30371 | -76.29414 | 33931 ft | 365 kts | 229° |
| 2026-05-07 16:57 | 37.26529 | -76.33591 | 33944 ft | 366 kts | 229° |
| 2026-05-07 16:58 | 37.22680 | -76.37769 | 33957 ft | 366 kts | 229° |
| 2026-05-07 16:58 | 37.18822 | -76.41952 | 33954 ft | 368 kts | 229° |
| 2026-05-07 16:59 | 37.14939 | -76.46154 | 33935 ft | 370 kts | 228° |
| 2026-05-07 16:59 | 37.11017 | -76.50394 | 33960 ft | 375 kts | 228° |
| 2026-05-07 17:00 | 37.07055 | -76.54670 | 33962 ft | 376 kts | 228° |
| 2026-05-07 17:00 | 37.03101 | -76.58927 | 33940 ft | 374 kts | 228° |
| 2026-05-07 17:01 | 36.99157 | -76.63171 | 33950 ft | 374 kts | 228° |
| 2026-05-07 17:01 | 36.95880 | -76.66691 | 33895 ft | 374 kts | 228° |
| 2026-05-07 17:02 | 36.91269 | -76.71643 | 33938 ft | 378 kts | 228° |
| 2026-05-07 17:02 | 36.87258 | -76.75943 | 33948 ft | 382 kts | 227° |
| 2026-05-07 17:03 | 36.83866 | -76.79574 | 33943 ft | 385 kts | 227° |
| 2026-05-07 17:03 | 36.79789 | -76.83931 | 33939 ft | 387 kts | 227° |
| 2026-05-07 17:04 | 36.75693 | -76.88300 | 33977 ft | 388 kts | 228° |
| 2026-05-07 17:04 | 36.71610 | -76.92649 | 33965 ft | 389 kts | 228° |
| 2026-05-07 17:05 | 36.67491 | -76.97031 | 33977 ft | 390 kts | 228° |
| 2026-05-07 17:05 | 36.63358 | -77.01420 | 33968 ft | 391 kts | 228° |
| 2026-05-07 17:06 | 36.59215 | -77.05820 | 33961 ft | 392 kts | 228° |
| 2026-05-07 17:06 | 36.55068 | -77.10208 | 33929 ft | 391 kts | 228° |
| 2026-05-07 17:07 | 36.50932 | -77.14581 | 33918 ft | 390 kts | 228° |
| 2026-05-07 17:07 | 36.46791 | -77.18954 | 33932 ft | 392 kts | 229° |
| 2026-05-07 17:08 | 36.42630 | -77.23350 | 33950 ft | 393 kts | 229° |
| 2026-05-07 17:08 | 36.38466 | -77.27744 | 33946 ft | 393 kts | 229° |
| 2026-05-07 17:09 | 36.34292 | -77.32127 | 33931 ft | 393 kts | 229° |
| 2026-05-07 17:09 | 36.30117 | -77.36510 | 33903 ft | 394 kts | 228° |
| 2026-05-07 17:10 | 36.25933 | -77.40898 | 33915 ft | 394 kts | 228° |
| 2026-05-07 17:10 | 36.21738 | -77.45285 | 33924 ft | 396 kts | 228° |
| 2026-05-07 17:11 | 36.17522 | -77.49691 | 33917 ft | 397 kts | 228° |
| 2026-05-07 17:11 | 36.13307 | -77.54095 | 33900 ft | 397 kts | 228° |
| 2026-05-07 17:12 | 36.09091 | -77.58491 | 33839 ft | 396 kts | 229° |
| 2026-05-07 17:12 | 36.04898 | -77.62860 | 33893 ft | 393 kts | 229° |
| 2026-05-07 17:13 | 36.00728 | -77.67196 | 33886 ft | 390 kts | 229° |
| 2026-05-07 17:13 | 35.96831 | -77.71740 | 33884 ft | 379 kts | 237° |
| 2026-05-07 17:14 | 35.93741 | -77.76822 | 33889 ft | 374 kts | 240° |
| 2026-05-07 17:14 | 35.90651 | -77.81962 | 33886 ft | 373 kts | 240° |
| 2026-05-07 17:15 | 35.87579 | -77.87055 | 33856 ft | 373 kts | 239° |
| 2026-05-07 17:15 | 35.84449 | -77.92219 | 33898 ft | 374 kts | 239° |
| 2026-05-07 17:16 | 35.81346 | -77.97337 | 33929 ft | 376 kts | 239° |
| 2026-05-07 17:16 | 35.78212 | -78.02496 | 33902 ft | 376 kts | 239° |
| 2026-05-07 17:17 | 35.75077 | -78.07640 | 33895 ft | 375 kts | 239° |
| 2026-05-07 17:17 | 35.71950 | -78.12770 | 33884 ft | 374 kts | 239° |
| 2026-05-07 17:18 | 35.68825 | -78.17882 | 33872 ft | 373 kts | 239° |
| 2026-05-07 17:18 | 35.65720 | -78.22956 | 33829 ft | 374 kts | 239° |
| 2026-05-07 17:19 | 35.62657 | -78.27960 | 33863 ft | 376 kts | 239° |
| 2026-05-07 17:19 | 35.59493 | -78.33121 | 33869 ft | 380 kts | 239° |
| 2026-05-07 17:20 | 35.56303 | -78.38314 | 33877 ft | 381 kts | 239° |
| 2026-05-07 17:20 | 35.53099 | -78.43519 | 33884 ft | 382 kts | 239° |
| 2026-05-07 17:21 | 35.49891 | -78.48726 | 33869 ft | 382 kts | 239° |
| 2026-05-07 17:21 | 35.46679 | -78.53929 | 33866 ft | 382 kts | 239° |
| 2026-05-07 17:22 | 35.43468 | -78.59124 | 33893 ft | 382 kts | 239° |
| 2026-05-07 17:22 | 35.40257 | -78.64313 | 33894 ft | 382 kts | 239° |
| 2026-05-07 17:23 | 35.37048 | -78.69493 | 33901 ft | 381 kts | 239° |
| 2026-05-07 17:23 | 35.33840 | -78.74659 | 33883 ft | 381 kts | 239° |
| 2026-05-07 17:24 | 35.30635 | -78.79812 | 33852 ft | 380 kts | 239° |
| 2026-05-07 17:24 | 35.27440 | -78.84944 | 33851 ft | 378 kts | 239° |
| 2026-05-07 17:25 | 35.24248 | -78.90065 | 33827 ft | 379 kts | 239° |
| 2026-05-07 17:25 | 35.21081 | -78.95137 | 33840 ft | 377 kts | 239° |
| 2026-05-07 17:26 | 35.17903 | -79.00222 | 33845 ft | 376 kts | 239° |
| 2026-05-07 17:26 | 35.14706 | -79.05326 | 33832 ft | 376 kts | 239° |
| 2026-05-07 17:27 | 35.11527 | -79.10402 | 33848 ft | 376 kts | 239° |
| 2026-05-07 17:27 | 35.08334 | -79.15483 | 33855 ft | 377 kts | 239° |
| 2026-05-07 17:28 | 35.05162 | -79.20522 | 33855 ft | 376 kts | 239° |
| 2026-05-07 17:28 | 35.01973 | -79.25586 | 33816 ft | 376 kts | 238° |
| 2026-05-07 17:29 | 34.98789 | -79.30632 | 33832 ft | 375 kts | 239° |
| 2026-05-07 17:29 | 34.95630 | -79.35674 | 33848 ft | 377 kts | 238° |
| 2026-05-07 17:30 | 34.92393 | -79.40702 | 33865 ft | 376 kts | 238° |
| 2026-05-07 17:30 | 34.89211 | -79.45725 | 33881 ft | 374 kts | 238° |
| 2026-05-07 17:31 | 34.86039 | -79.50732 | 33872 ft | 373 kts | 238° |
| 2026-05-07 17:31 | 34.82875 | -79.55733 | 33866 ft | 372 kts | 239° |
| 2026-05-07 17:32 | 34.79712 | -79.60720 | 33817 ft | 373 kts | 238° |
| 2026-05-07 17:32 | 34.77072 | -79.64869 | 33862 ft | 374 kts | 238° |
| 2026-05-07 17:33 | 34.73332 | -79.70738 | 33865 ft | 377 kts | 238° |
| 2026-05-07 17:33 | 34.70105 | -79.75790 | 33864 ft | 379 kts | 238° |
| 2026-05-07 17:34 | 34.66858 | -79.80859 | 33878 ft | 381 kts | 238° |
| 2026-05-07 17:34 | 34.63605 | -79.85934 | 33863 ft | 380 kts | 238° |
| 2026-05-07 17:35 | 34.60361 | -79.90992 | 33864 ft | 379 kts | 238° |
| 2026-05-07 17:35 | 34.57126 | -79.96024 | 33821 ft | 378 kts | 237° |
| 2026-05-07 17:36 | 34.53883 | -80.01062 | 33865 ft | 379 kts | 237° |
| 2026-05-07 17:36 | 34.50626 | -80.06121 | 33876 ft | 382 kts | 237° |
| 2026-05-07 17:37 | 34.47349 | -80.11201 | 33873 ft | 383 kts | 237° |
| 2026-05-07 17:37 | 34.44059 | -80.16293 | 33867 ft | 384 kts | 237° |
| 2026-05-07 17:38 | 34.40773 | -80.21364 | 33871 ft | 381 kts | 237° |
| 2026-05-07 17:38 | 34.37509 | -80.26399 | 33871 ft | 379 kts | 237° |
| 2026-05-07 17:39 | 34.34261 | -80.31406 | 33820 ft | 378 kts | 237° |
| 2026-05-07 17:39 | 34.30993 | -80.36441 | 33878 ft | 383 kts | 237° |
| 2026-05-07 17:40 | 34.27680 | -80.41536 | 33898 ft | 387 kts | 237° |
| 2026-05-07 17:40 | 34.24353 | -80.46641 | 33892 ft | 390 kts | 237° |
| 2026-05-07 17:41 | 34.20978 | -80.51808 | 33888 ft | 393 kts | 237° |
| 2026-05-07 17:41 | 34.17606 | -80.56965 | 33891 ft | 386 kts | 237° |
| 2026-05-07 17:42 | 34.14324 | -80.61970 | 33877 ft | 377 kts | 237° |
| 2026-05-07 17:42 | 34.11062 | -80.66952 | 33825 ft | 379 kts | 237° |
| 2026-05-07 17:43 | 34.07777 | -80.71965 | 33869 ft | 383 kts | 237° |
| 2026-05-07 17:43 | 34.04450 | -80.77033 | 33882 ft | 387 kts | 237° |
| 2026-05-07 17:44 | 34.01090 | -80.82135 | 33888 ft | 390 kts | 237° |
| 2026-05-07 17:44 | 33.97704 | -80.87269 | 33882 ft | 392 kts | 237° |
| 2026-05-07 17:45 | 33.94306 | -80.92408 | 33913 ft | 392 kts | 237° |
| 2026-05-07 17:45 | 33.90926 | -80.97528 | 33896 ft | 389 kts | 237° |
| 2026-05-07 17:46 | 33.87563 | -81.02614 | 33864 ft | 387 kts | 237° |
| 2026-05-07 17:46 | 33.84574 | -81.07918 | 33893 ft | 380 kts | 246° |
| 2026-05-07 17:47 | 33.82152 | -81.13575 | 33898 ft | 381 kts | 246° |
| 2026-05-07 17:47 | 33.79702 | -81.19245 | 33893 ft | 383 kts | 246° |
| 2026-05-07 17:48 | 33.77262 | -81.24903 | 33892 ft | 382 kts | 245° |
| 2026-05-07 17:48 | 33.74787 | -81.30550 | 33900 ft | 381 kts | 246° |
| 2026-05-07 17:49 | 33.72753 | -81.35242 | 33892 ft | 381 kts | 245° |
| 2026-05-07 17:49 | 33.70281 | -81.40863 | 33893 ft | 380 kts | 245° |
| 2026-05-07 17:50 | 33.67812 | -81.46476 | 33885 ft | 380 kts | 245° |
| 2026-05-07 17:50 | 33.65351 | -81.52082 | 33853 ft | 380 kts | 245° |
| 2026-05-07 17:51 | 33.62875 | -81.57696 | 33914 ft | 382 kts | 245° |
| 2026-05-07 17:51 | 33.60372 | -81.63333 | 33904 ft | 385 kts | 245° |
| 2026-05-07 17:52 | 33.57907 | -81.69068 | 33921 ft | 387 kts | 245° |
| 2026-05-07 17:52 | 33.55321 | -81.74727 | 33914 ft | 387 kts | 245° |
| 2026-05-07 17:53 | 33.52836 | -81.80447 | 33886 ft | 387 kts | 245° |
| 2026-05-07 17:53 | 33.50345 | -81.86126 | 33933 ft | 383 kts | 247° |
| 2026-05-07 17:54 | 33.47880 | -81.91782 | 33906 ft | 384 kts | 246° |
| 2026-05-07 17:54 | 33.45333 | -81.97380 | 33946 ft | 384 kts | 244° |
| 2026-05-07 17:55 | 33.42814 | -82.03010 | 33917 ft | 383 kts | 244° |
| 2026-05-07 17:55 | 33.40293 | -82.08655 | 33918 ft | 387 kts | 244° |
| 2026-05-07 17:56 | 33.37738 | -82.14377 | 33923 ft | 391 kts | 244° |
| 2026-05-07 17:56 | 33.35161 | -82.20172 | 33147 ft | 400 kts | 244° |
| 2026-05-07 17:57 | 33.33846 | -82.23136 | 32357 ft | 407 kts | 245° |
| 2026-05-07 17:57 | 33.32964 | -82.25120 | 31826 ft | 410 kts | 244° |
| 2026-05-07 17:57 | 33.31153 | -82.29139 | 30639 ft | 411 kts | 245° |
| 2026-05-07 17:57 | 33.29792 | -82.32155 | 29654 ft | 414 kts | 245° |
| 2026-05-07 17:58 | 33.28423 | -82.35189 | 28612 ft | 415 kts | 245° |
| 2026-05-07 17:58 | 33.27054 | -82.38230 | 27600 ft | 416 kts | 245° |
| 2026-05-07 17:58 | 33.25679 | -82.41282 | 26610 ft | 418 kts | 245° |
| 2026-05-07 17:58 | 33.24298 | -82.44340 | 25697 ft | 418 kts | 245° |
| 2026-05-07 17:59 | 33.22925 | -82.47380 | 24985 ft | 414 kts | 245° |
| 2026-05-07 17:59 | 33.21565 | -82.50391 | 24291 ft | 410 kts | 245° |
| 2026-05-07 17:59 | 33.20219 | -82.53368 | 23577 ft | 406 kts | 245° |
| 2026-05-07 17:59 | 33.18880 | -82.56329 | 22765 ft | 403 kts | 245° |
| 2026-05-07 18:00 | 33.17556 | -82.59251 | 22029 ft | 398 kts | 245° |
| 2026-05-07 18:00 | 33.16247 | -82.62139 | 21347 ft | 392 kts | 245° |
| 2026-05-07 18:00 | 33.14958 | -82.64983 | 20660 ft | 388 kts | 246° |
| 2026-05-07 18:00 | 33.13686 | -82.67786 | 20135 ft | 379 kts | 246° |
| 2026-05-07 18:01 | 33.12429 | -82.70555 | 19395 ft | 377 kts | 246° |
| 2026-05-07 18:01 | 33.11193 | -82.73276 | 18702 ft | 373 kts | 246° |
| 2026-05-07 18:01 | 33.09967 | -82.75974 | 18048 ft | 368 kts | 246° |
| 2026-05-07 18:01 | 33.08753 | -82.78644 | 17356 ft | 363 kts | 246° |
| 2026-05-07 18:02 | 33.06398 | -82.83816 | 16082 ft | 353 kts | 246° |
| 2026-05-07 18:02 | 33.05215 | -82.86411 | 15441 ft | 350 kts | 246° |
| 2026-05-07 18:02 | 33.04060 | -82.88945 | 14837 ft | 346 kts | 246° |
| 2026-05-07 18:03 | 33.02915 | -82.91452 | 14267 ft | 343 kts | 246° |
| 2026-05-07 18:03 | 33.01779 | -82.93938 | 13658 ft | 340 kts | 246° |
| 2026-05-07 18:03 | 33.00651 | -82.96409 | 12981 ft | 339 kts | 246° |
| 2026-05-07 18:03 | 32.99529 | -82.98865 | 12356 ft | 336 kts | 245° |
| 2026-05-07 18:04 | 32.98414 | -83.01301 | 11757 ft | 334 kts | 245° |
| 2026-05-07 18:04 | 32.97305 | -83.03722 | 11240 ft | 332 kts | 245° |
| 2026-05-07 18:04 | 32.96203 | -83.06126 | 11078 ft | 330 kts | 245° |
| 2026-05-07 18:04 | 32.95105 | -83.08522 | 10982 ft | 327 kts | 245° |
| 2026-05-07 18:05 | 32.94029 | -83.10865 | 10751 ft | 316 kts | 245° |
| 2026-05-07 18:05 | 32.93006 | -83.13085 | 10565 ft | 297 kts | 245° |
| 2026-05-07 18:05 | 32.92045 | -83.15182 | 10363 ft | 280 kts | 245° |
| 2026-05-07 18:05 | 32.91135 | -83.17153 | 10203 ft | 265 kts | 245° |
| 2026-05-07 18:06 | 32.90275 | -83.19022 | 10043 ft | 253 kts | 245° |
| 2026-05-07 18:06 | 32.89423 | -83.20834 | 9867 ft | 252 kts | 240° |
| 2026-05-07 18:06 | 32.88115 | -83.22247 | 9555 ft | 261 kts | 213° |
| 2026-05-07 18:06 | 32.86371 | -83.22721 | 9317 ft | 267 kts | 186° |
| 2026-05-07 18:07 | 32.84556 | -83.22128 | 9107 ft | 278 kts | 159° |
| 2026-05-07 18:07 | 32.83034 | -83.20670 | 8821 ft | 289 kts | 133° |
| 2026-05-07 18:07 | 32.82241 | -83.18468 | 8616 ft | 296 kts | 99° |
| 2026-05-07 18:07 | 32.82364 | -83.16033 | 8415 ft | 297 kts | 70° |
| 2026-05-07 18:08 | 32.83328 | -83.13934 | 8138 ft | 285 kts | 40° |
| 2026-05-07 18:08 | 32.84881 | -83.12635 | 7898 ft | 266 kts | 10° |
| 2026-05-07 18:08 | 32.86622 | -83.12381 | 7651 ft | 244 kts | 340° |
| 2026-05-07 18:08 | 32.88090 | -83.13139 | 7407 ft | 224 kts | 310° |
| 2026-05-07 18:09 | 32.88899 | -83.14615 | 7166 ft | 210 kts | 280° |
| 2026-05-07 18:09 | 32.89022 | -83.16333 | 6963 ft | 209 kts | 269° |
| 2026-05-07 18:09 | 32.89011 | -83.18073 | 6720 ft | 211 kts | 269° |
| 2026-05-07 18:09 | 32.88987 | -83.19820 | 6505 ft | 213 kts | 268° |
| 2026-05-07 18:10 | 32.88960 | -83.21598 | 6267 ft | 216 kts | 268° |
| 2026-05-07 18:10 | 32.88875 | -83.23422 | 6005 ft | 228 kts | 267° |
| 2026-05-07 18:10 | 32.88819 | -83.25356 | 5753 ft | 238 kts | 268° |
| 2026-05-07 18:10 | 32.88768 | -83.27336 | 5512 ft | 240 kts | 268° |
| 2026-05-07 18:11 | 32.88714 | -83.29308 | 5266 ft | 238 kts | 268° |
| 2026-05-07 18:11 | 32.88678 | -83.30609 | 5099 ft | 237 kts | 268° |
| 2026-05-07 18:11 | 32.88360 | -83.33191 | 4777 ft | 237 kts | 249° |
| 2026-05-07 18:11 | 32.87688 | -83.34920 | 4717 ft | 223 kts | 246° |
| 2026-05-07 18:12 | 32.87039 | -83.36527 | 4612 ft | 208 kts | 248° |
| 2026-05-07 18:12 | 32.86437 | -83.38030 | 4514 ft | 195 kts | 248° |
| 2026-05-07 18:12 | 32.85870 | -83.39431 | 4313 ft | 183 kts | 246° |
| 2026-05-07 18:12 | 32.85333 | -83.40754 | 4057 ft | 174 kts | 246° |
| 2026-05-07 18:13 | 32.84784 | -83.42026 | 3821 ft | 174 kts | 248° |
| 2026-05-07 18:13 | 32.84302 | -83.43366 | 3584 ft | 177 kts | 248° |
| 2026-05-07 18:13 | 32.83762 | -83.44672 | 3593 ft | 176 kts | 247° |
| 2026-05-07 18:13 | 32.83232 | -83.45996 | 3629 ft | 179 kts | 246° |
| 2026-05-07 18:14 | 32.82689 | -83.47349 | 3642 ft | 182 kts | 244° |
| 2026-05-07 18:14 | 32.81955 | -83.48581 | 3530 ft | 186 kts | 233° |
| 2026-05-07 18:14 | 32.81077 | -83.49734 | 3257 ft | 188 kts | 231° |
| 2026-05-07 18:14 | 32.80191 | -83.50865 | 2851 ft | 187 kts | 229° |
| 2026-05-07 18:15 | 32.79296 | -83.51959 | 2546 ft | 184 kts | 233° |
| 2026-05-07 18:15 | 32.78467 | -83.53094 | 2184 ft | 183 kts | 233° |
| 2026-05-07 18:15 | 32.77616 | -83.54140 | 2100 ft | 172 kts | 221° |
| 2026-05-07 18:15 | 32.76770 | -83.55110 | 2090 ft | 165 kts | 236° |
| 2026-05-07 18:16 | 32.76093 | -83.56198 | 2125 ft | 162 kts | 236° |
| 2026-05-07 18:16 | 32.75383 | -83.57196 | 1989 ft | 159 kts | 231° |
| 2026-05-07 18:16 | 32.74637 | -83.58160 | 1820 ft | 157 kts | 232° |
| 2026-05-07 18:16 | 32.73928 | -83.59082 | 1628 ft | 145 kts | 231° |
| 2026-05-07 18:17 | 32.73256 | -83.59966 | 1441 ft | 143 kts | 232° |
| 2026-05-07 18:17 | 32.72557 | -83.60880 | 1253 ft | 153 kts | 230° |
| 2026-05-07 18:17 | 32.71872 | -83.61817 | 1021 ft | 151 kts | 231° |
| 2026-05-07 18:17 | 32.71177 | -83.62735 | 834 ft | 145 kts | 228° |
| 2026-05-07 18:18 | 32.70450 | -83.63648 | 594 ft | 159 kts | 224° |
| 2026-05-07 18:18 | 32.69724 | -83.64598 | 372 ft | 148 kts | 227° |
| 2026-05-07 18:18 | 32.69109 | -83.65399 | 369 ft | 105 kts | 228° |
| 2026-05-07 18:18 | 32.68766 | -83.65847 | 365 ft | 42 kts | 227° |
| 2026-05-07 18:19 | 32.68661 | -83.65986 | 367 ft | 18 kts | 228° |
| 2026-05-07 18:19 | 32.68652 | -83.66098 | 364 ft | 14 kts | 311° |
| 2026-05-07 18:19 | 32.68732 | -83.66089 | 362 ft | 13 kts | 47° |
| 2026-05-07 18:19 | 32.68793 | -83.66008 | 366 ft | 15 kts | 47° |
| 2026-05-07 18:20 | 32.68872 | -83.65904 | 365 ft | 18 kts | 48° |
| 2026-05-07 18:20 | 32.68953 | -83.65798 | 364 ft | 17 kts | 47° |
| 2026-05-07 18:20 | 32.69031 | -83.65696 | 368 ft | 18 kts | 46° |
| 2026-05-07 18:20 | 32.69133 | -83.65562 | 368 ft | 24 kts | 48° |
| 2026-05-07 18:21 | 32.69242 | -83.65419 | 365 ft | 23 kts | 47° |
| 2026-05-07 18:21 | 32.69349 | -83.65283 | 363 ft | 22 kts | 43° |
| 2026-05-07 18:21 | 32.69476 | -83.65184 | 360 ft | 22 kts | 25° |
| 2026-05-07 18:21 | 32.69617 | -83.65133 | 364 ft | 21 kts | 10° |
| 2026-05-07 18:22 | 32.69753 | -83.65132 | 361 ft | 16 kts | 5° |
| 2026-05-07 18:22 | 32.69815 | -83.65084 | 361 ft | 16 kts | 45° |
| 2026-05-07 18:22 | 32.69940 | -83.65098 | 363 ft | 15 kts | 332° |
| 2026-05-07 18:22 | 32.70035 | -83.65131 | 370 ft | 14 kts | 1° |
| 2026-05-07 18:23 | 32.70131 | -83.65133 | 369 ft | 13 kts | 358° |
| 2026-05-07 18:23 | 32.70196 | -83.65109 | 369 ft | 5 kts | 74° |
| 2026-05-07 18:23 | 32.70190 | -83.65087 | 369 ft | 7 kts | 133° |
| 2026-05-07 18:23 | 32.70163 | -83.65089 | 367 ft | 0 kts | 185° |